sensor_id;sensor_type;location;lat;lon;timestamp;P1;durP1;ratioP1;P2;durP2;ratioP2
45388;SDS011;31127;52.078;4.370;2023-04-06T00:00:34;51.58;;;27.75;;
45388;SDS011;31127;52.078;4.370;2023-04-06T00:05:30;54.92;;;27.63;;
45388;SDS011;31127;52.078;4.370;2023-04-06T00:10:26;58.33;;;29.35;;
45388;SDS011;31127;52.078;4.370;2023-04-06T00:15:21;50.47;;;28.38;;
45388;SDS011;31127;52.078;4.370;2023-04-06T00:20:17;53.38;;;28.33;;
45388;SDS011;31127;52.078;4.370;2023-04-06T00:25:13;47.20;;;27.70;;
45388;SDS011;31127;52.078;4.370;2023-04-06T00:30:28;42.35;;;23.08;;
45388;SDS011;31127;52.078;4.370;2023-04-06T00:35:23;45.55;;;24.35;;
45388;SDS011;31127;52.078;4.370;2023-04-06T00:40:19;44.58;;;24.95;;
45388;SDS011;31127;52.078;4.370;2023-04-06T00:45:15;48.40;;;24.23;;
45388;SDS011;31127;52.078;4.370;2023-04-06T00:50:10;40.47;;;22.58;;
45388;SDS011;31127;52.078;4.370;2023-04-06T00:55:06;39.35;;;22.33;;
45388;SDS011;31127;52.078;4.370;2023-04-06T01:00:06;46.55;;;23.08;;
45388;SDS011;31127;52.078;4.370;2023-04-06T01:05:02;35.20;;;20.33;;
45388;SDS011;31127;52.078;4.370;2023-04-06T01:10:27;37.30;;;21.45;;
45388;SDS011;31127;52.078;4.370;2023-04-06T01:15:46;30.70;;;18.23;;
45388;SDS011;31127;52.078;4.370;2023-04-06T01:20:46;30.30;;;17.90;;
45388;SDS011;31127;52.078;4.370;2023-04-06T01:25:43;33.67;;;17.75;;
45388;SDS011;31127;52.078;4.370;2023-04-06T01:30:38;33.10;;;19.20;;
45388;SDS011;31127;52.078;4.370;2023-04-06T01:35:41;28.85;;;17.75;;
45388;SDS011;31127;52.078;4.370;2023-04-06T01:40:43;29.08;;;16.42;;
45388;SDS011;31127;52.078;4.370;2023-04-06T01:46:06;24.50;;;15.67;;
45388;SDS011;31127;52.078;4.370;2023-04-06T01:51:08;23.38;;;13.57;;
45388;SDS011;31127;52.078;4.370;2023-04-06T01:56:12;27.05;;;14.57;;
45388;SDS011;31127;52.078;4.370;2023-04-06T02:01:40;24.05;;;13.77;;
45388;SDS011;31127;52.078;4.370;2023-04-06T02:06:57;25.85;;;13.52;;
45388;SDS011;31127;52.078;4.370;2023-04-06T02:11:56;26.33;;;14.75;;
45388;SDS011;31127;52.078;4.370;2023-04-06T02:16:52;28.30;;;13.73;;
45388;SDS011;31127;52.078;4.370;2023-04-06T02:21:48;26.27;;;14.32;;
45388;SDS011;31127;52.078;4.370;2023-04-06T02:26:43;22.40;;;13.17;;
45388;SDS011;31127;52.078;4.370;2023-04-06T02:31:39;27.25;;;14.45;;
45388;SDS011;31127;52.078;4.370;2023-04-06T02:36:36;19.85;;;12.32;;
45388;SDS011;31127;52.078;4.370;2023-04-06T02:41:31;24.33;;;13.35;;
45388;SDS011;31127;52.078;4.370;2023-04-06T02:46:28;26.38;;;14.48;;
45388;SDS011;31127;52.078;4.370;2023-04-06T02:51:24;23.80;;;12.85;;
45388;SDS011;31127;52.078;4.370;2023-04-06T02:56:24;23.15;;;13.90;;
45388;SDS011;31127;52.078;4.370;2023-04-06T03:01:20;25.40;;;14.90;;
45388;SDS011;31127;52.078;4.370;2023-04-06T03:06:21;22.42;;;13.32;;
45388;SDS011;31127;52.078;4.370;2023-04-06T03:11:21;22.00;;;13.57;;
45388;SDS011;31127;52.078;4.370;2023-04-06T03:16:19;22.05;;;13.57;;
45388;SDS011;31127;52.078;4.370;2023-04-06T03:21:14;24.52;;;13.63;;
45388;SDS011;31127;52.078;4.370;2023-04-06T03:26:31;25.92;;;13.85;;
45388;SDS011;31127;52.078;4.370;2023-04-06T03:31:33;27.33;;;14.20;;
45388;SDS011;31127;52.078;4.370;2023-04-06T03:36:59;25.10;;;15.07;;
45388;SDS011;31127;52.078;4.370;2023-04-06T03:42:20;29.17;;;15.68;;
45388;SDS011;31127;52.078;4.370;2023-04-06T03:47:22;32.20;;;17.08;;
45388;SDS011;31127;52.078;4.370;2023-04-06T03:52:38;32.95;;;16.40;;
45388;SDS011;31127;52.078;4.370;2023-04-06T03:57:35;30.52;;;16.90;;
45388;SDS011;31127;52.078;4.370;2023-04-06T04:02:30;27.85;;;15.95;;
45388;SDS011;31127;52.078;4.370;2023-04-06T04:07:26;30.10;;;17.02;;
45388;SDS011;31127;52.078;4.370;2023-04-06T04:12:21;31.70;;;17.73;;
45388;SDS011;31127;52.078;4.370;2023-04-06T04:17:17;28.55;;;17.25;;
45388;SDS011;31127;52.078;4.370;2023-04-06T04:22:14;36.90;;;18.20;;
45388;SDS011;31127;52.078;4.370;2023-04-06T04:27:10;32.70;;;18.77;;
45388;SDS011;31127;52.078;4.370;2023-04-06T04:32:26;31.20;;;17.75;;
45388;SDS011;31127;52.078;4.370;2023-04-06T04:37:24;33.80;;;18.45;;
45388;SDS011;31127;52.078;4.370;2023-04-06T04:42:23;33.22;;;19.15;;
45388;SDS011;31127;52.078;4.370;2023-04-06T04:47:45;32.95;;;18.92;;
45388;SDS011;31127;52.078;4.370;2023-04-06T04:52:43;37.17;;;19.63;;
45388;SDS011;31127;52.078;4.370;2023-04-06T04:57:51;30.02;;;17.73;;
45388;SDS011;31127;52.078;4.370;2023-04-06T05:02:52;32.97;;;20.10;;
45388;SDS011;31127;52.078;4.370;2023-04-06T05:07:52;36.03;;;20.55;;
45388;SDS011;31127;52.078;4.370;2023-04-06T05:13:07;42.20;;;22.08;;
45388;SDS011;31127;52.078;4.370;2023-04-06T05:18:20;44.28;;;21.58;;
45388;SDS011;31127;52.078;4.370;2023-04-06T05:23:15;39.03;;;22.40;;
45388;SDS011;31127;52.078;4.370;2023-04-06T05:28:12;36.40;;;21.60;;
45388;SDS011;31127;52.078;4.370;2023-04-06T05:33:10;35.00;;;20.80;;
45388;SDS011;31127;52.078;4.370;2023-04-06T05:38:22;39.20;;;23.05;;
45388;SDS011;31127;52.078;4.370;2023-04-06T05:43:18;43.10;;;25.92;;
45388;SDS011;31127;52.078;4.370;2023-04-06T05:48:21;48.72;;;28.05;;
45388;SDS011;31127;52.078;4.370;2023-04-06T05:53:16;53.38;;;28.50;;
45388;SDS011;31127;52.078;4.370;2023-04-06T05:58:19;47.38;;;27.50;;
45388;SDS011;31127;52.078;4.370;2023-04-06T06:03:17;57.22;;;32.28;;
45388;SDS011;31127;52.078;4.370;2023-04-06T06:08:18;57.10;;;33.47;;
45388;SDS011;31127;52.078;4.370;2023-04-06T06:13:16;56.22;;;31.58;;
45388;SDS011;31127;52.078;4.370;2023-04-06T06:18:12;60.25;;;34.60;;
45388;SDS011;31127;52.078;4.370;2023-04-06T06:23:28;58.00;;;34.05;;
45388;SDS011;31127;52.078;4.370;2023-04-06T06:28:23;70.40;;;33.88;;
45388;SDS011;31127;52.078;4.370;2023-04-06T06:33:20;58.10;;;32.13;;
45388;SDS011;31127;52.078;4.370;2023-04-06T06:38:18;59.30;;;34.30;;
45388;SDS011;31127;52.078;4.370;2023-04-06T06:43:14;64.07;;;35.33;;
45388;SDS011;31127;52.078;4.370;2023-04-06T06:48:21;58.63;;;33.13;;
45388;SDS011;31127;52.078;4.370;2023-04-06T06:53:16;65.55;;;35.05;;
45388;SDS011;31127;52.078;4.370;2023-04-06T06:58:32;58.67;;;35.67;;
45388;SDS011;31127;52.078;4.370;2023-04-06T07:03:28;56.38;;;34.25;;
45388;SDS011;31127;52.078;4.370;2023-04-06T07:08:24;63.03;;;34.50;;
45388;SDS011;31127;52.078;4.370;2023-04-06T07:13:19;59.58;;;35.72;;
45388;SDS011;31127;52.078;4.370;2023-04-06T07:18:20;50.97;;;32.17;;
45388;SDS011;31127;52.078;4.370;2023-04-06T07:23:15;44.00;;;25.60;;
45388;SDS011;31127;52.078;4.370;2023-04-06T07:28:11;47.78;;;28.25;;
45388;SDS011;31127;52.078;4.370;2023-04-06T07:33:07;44.50;;;26.52;;
45388;SDS011;31127;52.078;4.370;2023-04-06T07:38:04;43.05;;;25.73;;
45388;SDS011;31127;52.078;4.370;2023-04-06T07:43:00;39.03;;;23.48;;
45388;SDS011;31127;52.078;4.370;2023-04-06T07:47:57;35.88;;;21.13;;
45388;SDS011;31127;52.078;4.370;2023-04-06T07:52:55;39.78;;;22.67;;
45388;SDS011;31127;52.078;4.370;2023-04-06T07:57:51;29.27;;;15.40;;
45388;SDS011;31127;52.078;4.370;2023-04-06T08:02:46;28.02;;;18.42;;
45388;SDS011;31127;52.078;4.370;2023-04-06T08:07:42;32.42;;;18.45;;
45388;SDS011;31127;52.078;4.370;2023-04-06T08:12:37;30.70;;;18.20;;
45388;SDS011;31127;52.078;4.370;2023-04-06T08:17:33;28.10;;;17.77;;
45388;SDS011;31127;52.078;4.370;2023-04-06T08:22:29;32.33;;;16.70;;
45388;SDS011;31127;52.078;4.370;2023-04-06T08:27:44;28.20;;;17.58;;
45388;SDS011;31127;52.078;4.370;2023-04-06T08:33:00;30.92;;;18.00;;
45388;SDS011;31127;52.078;4.370;2023-04-06T08:37:56;36.65;;;18.42;;
45388;SDS011;31127;52.078;4.370;2023-04-06T08:42:52;30.52;;;16.10;;
45388;SDS011;31127;52.078;4.370;2023-04-06T08:47:52;22.05;;;13.43;;
45388;SDS011;31127;52.078;4.370;2023-04-06T08:52:48;25.05;;;14.30;;
45388;SDS011;31127;52.078;4.370;2023-04-06T08:57:43;21.70;;;11.98;;
45388;SDS011;31127;52.078;4.370;2023-04-06T09:02:42;20.00;;;10.15;;
45388;SDS011;31127;52.078;4.370;2023-04-06T09:07:38;19.98;;;11.00;;
45388;SDS011;31127;52.078;4.370;2023-04-06T09:13:02;16.58;;;8.93;;
45388;SDS011;31127;52.078;4.370;2023-04-06T09:17:57;12.45;;;7.10;;
45388;SDS011;31127;52.078;4.370;2023-04-06T09:22:53;14.10;;;8.07;;
45388;SDS011;31127;52.078;4.370;2023-04-06T09:27:57;19.25;;;8.55;;
45388;SDS011;31127;52.078;4.370;2023-04-06T09:32:55;14.27;;;7.90;;
45388;SDS011;31127;52.078;4.370;2023-04-06T09:37:51;15.82;;;8.52;;
45388;SDS011;31127;52.078;4.370;2023-04-06T09:42:47;15.85;;;9.02;;
45388;SDS011;31127;52.078;4.370;2023-04-06T09:47:43;21.00;;;9.93;;
45388;SDS011;31127;52.078;4.370;2023-04-06T09:52:59;18.65;;;10.38;;
45388;SDS011;31127;52.078;4.370;2023-04-06T09:57:58;14.55;;;9.95;;
45388;SDS011;31127;52.078;4.370;2023-04-06T10:02:58;17.83;;;11.05;;
45388;SDS011;31127;52.078;4.370;2023-04-06T10:07:55;16.67;;;9.80;;
45388;SDS011;31127;52.078;4.370;2023-04-06T10:12:52;18.17;;;10.13;;
45388;SDS011;31127;52.078;4.370;2023-04-06T10:17:48;19.63;;;12.25;;
45388;SDS011;31127;52.078;4.370;2023-04-06T10:22:45;19.20;;;12.18;;
45388;SDS011;31127;52.078;4.370;2023-04-06T10:27:47;20.70;;;13.48;;
45388;SDS011;31127;52.078;4.370;2023-04-06T10:32:54;20.35;;;11.77;;
45388;SDS011;31127;52.078;4.370;2023-04-06T10:37:59;18.13;;;11.52;;
45388;SDS011;31127;52.078;4.370;2023-04-06T10:42:55;17.95;;;12.07;;
45388;SDS011;31127;52.078;4.370;2023-04-06T10:48:14;18.67;;;11.90;;
45388;SDS011;31127;52.078;4.370;2023-04-06T10:53:10;18.77;;;12.75;;
45388;SDS011;31127;52.078;4.370;2023-04-06T10:58:06;19.35;;;10.95;;
45388;SDS011;31127;52.078;4.370;2023-04-06T11:03:02;18.48;;;12.98;;
45388;SDS011;31127;52.078;4.370;2023-04-06T11:07:57;19.50;;;12.85;;
45388;SDS011;31127;52.078;4.370;2023-04-06T11:12:53;14.98;;;11.40;;
45388;SDS011;31127;52.078;4.370;2023-04-06T11:18:09;22.67;;;11.65;;
45388;SDS011;31127;52.078;4.370;2023-04-06T11:23:06;17.48;;;11.65;;
45388;SDS011;31127;52.078;4.370;2023-04-06T11:28:01;16.17;;;11.70;;
45388;SDS011;31127;52.078;4.370;2023-04-06T11:33:00;13.20;;;9.40;;
45388;SDS011;31127;52.078;4.370;2023-04-06T11:38:17;17.08;;;12.05;;
45388;SDS011;31127;52.078;4.370;2023-04-06T11:43:13;20.10;;;12.77;;
45388;SDS011;31127;52.078;4.370;2023-04-06T11:48:17;17.83;;;13.65;;
45388;SDS011;31127;52.078;4.370;2023-04-06T11:53:13;19.10;;;14.95;;
45388;SDS011;31127;52.078;4.370;2023-04-06T11:58:29;23.10;;;15.90;;
45388;SDS011;31127;52.078;4.370;2023-04-06T12:03:24;20.75;;;16.45;;
45388;SDS011;31127;52.078;4.370;2023-04-06T12:08:20;19.23;;;14.87;;
45388;SDS011;31127;52.078;4.370;2023-04-06T12:13:20;21.98;;;16.65;;
45388;SDS011;31127;52.078;4.370;2023-04-06T12:18:15;17.52;;;14.45;;
45388;SDS011;31127;52.078;4.370;2023-04-06T12:23:11;18.92;;;14.48;;
45388;SDS011;31127;52.078;4.370;2023-04-06T12:28:06;19.55;;;15.65;;
45388;SDS011;31127;52.078;4.370;2023-04-06T12:33:02;18.50;;;13.27;;
45388;SDS011;31127;52.078;4.370;2023-04-06T12:37:57;20.00;;;13.95;;
45388;SDS011;31127;52.078;4.370;2023-04-06T12:42:53;16.33;;;12.95;;
45388;SDS011;31127;52.078;4.370;2023-04-06T12:47:48;13.45;;;11.35;;
45388;SDS011;31127;52.078;4.370;2023-04-06T12:52:44;15.15;;;10.65;;
45388;SDS011;31127;52.078;4.370;2023-04-06T12:57:39;15.55;;;12.32;;
45388;SDS011;31127;52.078;4.370;2023-04-06T13:02:35;16.08;;;11.93;;
45388;SDS011;31127;52.078;4.370;2023-04-06T13:07:51;40.55;;;14.25;;
45388;SDS011;31127;52.078;4.370;2023-04-06T13:12:46;13.50;;;10.43;;
45388;SDS011;31127;52.078;4.370;2023-04-06T13:18:02;13.30;;;10.68;;
45388;SDS011;31127;52.078;4.370;2023-04-06T13:22:58;14.18;;;10.40;;
45388;SDS011;31127;52.078;4.370;2023-04-06T13:27:53;12.80;;;8.88;;
45388;SDS011;31127;52.078;4.370;2023-04-06T13:32:49;13.23;;;9.80;;
45388;SDS011;31127;52.078;4.370;2023-04-06T13:37:44;13.73;;;10.43;;
45388;SDS011;31127;52.078;4.370;2023-04-06T13:42:40;16.70;;;11.45;;
45388;SDS011;31127;52.078;4.370;2023-04-06T13:47:36;13.10;;;10.25;;
45388;SDS011;31127;52.078;4.370;2023-04-06T13:52:53;15.05;;;10.95;;
45388;SDS011;31127;52.078;4.370;2023-04-06T13:57:49;17.17;;;12.30;;
45388;SDS011;31127;52.078;4.370;2023-04-06T14:02:45;16.80;;;11.98;;
45388;SDS011;31127;52.078;4.370;2023-04-06T14:07:41;15.77;;;12.32;;
45388;SDS011;31127;52.078;4.370;2023-04-06T14:12:36;16.30;;;12.48;;
45388;SDS011;31127;52.078;4.370;2023-04-06T14:17:32;15.80;;;11.90;;
45388;SDS011;31127;52.078;4.370;2023-04-06T14:22:27;16.08;;;11.25;;
45388;SDS011;31127;52.078;4.370;2023-04-06T14:27:23;16.10;;;11.73;;
45388;SDS011;31127;52.078;4.370;2023-04-06T14:32:19;16.35;;;10.68;;
45388;SDS011;31127;52.078;4.370;2023-04-06T14:37:14;17.95;;;12.80;;
45388;SDS011;31127;52.078;4.370;2023-04-06T14:42:11;15.32;;;12.40;;
45388;SDS011;31127;52.078;4.370;2023-04-06T14:47:06;17.65;;;12.90;;
45388;SDS011;31127;52.078;4.370;2023-04-06T14:52:02;18.35;;;14.63;;
45388;SDS011;31127;52.078;4.370;2023-04-06T14:56:58;20.02;;;14.77;;
45388;SDS011;31127;52.078;4.370;2023-04-06T15:01:53;18.35;;;14.25;;
45388;SDS011;31127;52.078;4.370;2023-04-06T15:07:08;18.27;;;14.23;;
45388;SDS011;31127;52.078;4.370;2023-04-06T15:12:04;18.77;;;12.27;;
45388;SDS011;31127;52.078;4.370;2023-04-06T15:17:00;18.77;;;14.27;;
45388;SDS011;31127;52.078;4.370;2023-04-06T15:21:55;20.40;;;15.25;;
45388;SDS011;31127;52.078;4.370;2023-04-06T15:27:11;19.02;;;15.55;;
45388;SDS011;31127;52.078;4.370;2023-04-06T15:32:06;19.02;;;15.73;;
45388;SDS011;31127;52.078;4.370;2023-04-06T15:37:14;16.35;;;13.55;;
45388;SDS011;31127;52.078;4.370;2023-04-06T15:42:10;26.13;;;17.73;;
45388;SDS011;31127;52.078;4.370;2023-04-06T15:47:05;23.17;;;16.38;;
45388;SDS011;31127;52.078;4.370;2023-04-06T15:52:01;22.83;;;15.00;;
45388;SDS011;31127;52.078;4.370;2023-04-06T15:56:57;25.58;;;18.70;;
45388;SDS011;31127;52.078;4.370;2023-04-06T16:01:53;24.70;;;18.15;;
45388;SDS011;31127;52.078;4.370;2023-04-06T16:06:49;25.70;;;18.38;;
45388;SDS011;31127;52.078;4.370;2023-04-06T16:12:04;29.98;;;20.33;;
45388;SDS011;31127;52.078;4.370;2023-04-06T16:17:00;33.45;;;21.85;;
45388;SDS011;31127;52.078;4.370;2023-04-06T16:21:55;30.98;;;21.48;;
45388;SDS011;31127;52.078;4.370;2023-04-06T16:26:51;35.53;;;24.58;;
45388;SDS011;31127;52.078;4.370;2023-04-06T16:31:47;40.58;;;26.83;;
45388;SDS011;31127;52.078;4.370;2023-04-06T16:36:43;41.88;;;26.40;;
45388;SDS011;31127;52.078;4.370;2023-04-06T16:41:38;58.38;;;31.70;;
45388;SDS011;31127;52.078;4.370;2023-04-06T16:46:35;59.60;;;33.80;;
45388;SDS011;31127;52.078;4.370;2023-04-06T16:51:32;54.70;;;32.92;;
45388;SDS011;31127;52.078;4.370;2023-04-06T16:56:47;51.00;;;31.55;;
45388;SDS011;31127;52.078;4.370;2023-04-06T17:01:43;49.80;;;30.00;;
45388;SDS011;31127;52.078;4.370;2023-04-06T17:06:39;54.25;;;30.95;;
45388;SDS011;31127;52.078;4.370;2023-04-06T17:11:34;57.42;;;30.90;;
45388;SDS011;31127;52.078;4.370;2023-04-06T17:16:33;50.50;;;30.10;;
45388;SDS011;31127;52.078;4.370;2023-04-06T17:21:29;54.72;;;30.25;;
45388;SDS011;31127;52.078;4.370;2023-04-06T17:26:25;56.20;;;27.90;;
45388;SDS011;31127;52.078;4.370;2023-04-06T17:31:20;41.03;;;24.30;;
45388;SDS011;31127;52.078;4.370;2023-04-06T17:36:16;29.00;;;20.05;;
45388;SDS011;31127;52.078;4.370;2023-04-06T17:41:12;32.83;;;20.75;;
45388;SDS011;31127;52.078;4.370;2023-04-06T17:46:28;23.52;;;13.57;;
45388;SDS011;31127;52.078;4.370;2023-04-06T17:51:24;23.37;;;14.50;;
45388;SDS011;31127;52.078;4.370;2023-04-06T17:56:21;18.83;;;11.35;;
45388;SDS011;31127;52.078;4.370;2023-04-06T18:01:17;24.98;;;11.07;;
45388;SDS011;31127;52.078;4.370;2023-04-06T18:06:14;18.15;;;9.13;;
45388;SDS011;31127;52.078;4.370;2023-04-06T18:11:18;19.20;;;8.68;;
45388;SDS011;31127;52.078;4.370;2023-04-06T18:16:34;26.25;;;8.35;;
45388;SDS011;31127;52.078;4.370;2023-04-06T18:21:30;24.50;;;7.55;;
45388;SDS011;31127;52.078;4.370;2023-04-06T18:26:26;14.65;;;7.00;;
45388;SDS011;31127;52.078;4.370;2023-04-06T18:31:21;13.63;;;5.88;;
45388;SDS011;31127;52.078;4.370;2023-04-06T18:36:17;15.55;;;6.13;;
45388;SDS011;31127;52.078;4.370;2023-04-06T18:41:13;11.02;;;5.03;;
45388;SDS011;31127;52.078;4.370;2023-04-06T18:51:07;9.98;;;3.80;;
45388;SDS011;31127;52.078;4.370;2023-04-06T18:56:03;11.85;;;3.63;;
45388;SDS011;31127;52.078;4.370;2023-04-06T19:01:06;10.88;;;3.15;;
45388;SDS011;31127;52.078;4.370;2023-04-06T19:06:05;14.65;;;3.72;;
45388;SDS011;31127;52.078;4.370;2023-04-06T19:11:04;17.13;;;3.78;;
45388;SDS011;31127;52.078;4.370;2023-04-06T19:16:00;13.43;;;3.83;;
45388;SDS011;31127;52.078;4.370;2023-04-06T19:20:56;16.08;;;4.05;;
45388;SDS011;31127;52.078;4.370;2023-04-06T19:26:11;14.73;;;3.30;;
45388;SDS011;31127;52.078;4.370;2023-04-06T19:31:08;16.05;;;3.40;;
45388;SDS011;31127;52.078;4.370;2023-04-06T19:36:04;19.40;;;3.78;;
45388;SDS011;31127;52.078;4.370;2023-04-06T19:41:00;11.23;;;3.30;;
45388;SDS011;31127;52.078;4.370;2023-04-06T19:45:55;13.20;;;3.88;;
45388;SDS011;31127;52.078;4.370;2023-04-06T19:51:11;22.92;;;4.63;;
45388;SDS011;31127;52.078;4.370;2023-04-06T19:56:13;18.07;;;3.57;;
45388;SDS011;31127;52.078;4.370;2023-04-06T20:01:10;9.43;;;3.38;;
45388;SDS011;31127;52.078;4.370;2023-04-06T20:06:05;13.75;;;3.13;;
45388;SDS011;31127;52.078;4.370;2023-04-06T20:11:01;11.67;;;3.87;;
45388;SDS011;31127;52.078;4.370;2023-04-06T20:15:57;14.30;;;3.90;;
45388;SDS011;31127;52.078;4.370;2023-04-06T20:20:53;21.95;;;3.22;;
45388;SDS011;31127;52.078;4.370;2023-04-06T20:25:48;10.88;;;2.42;;
45388;SDS011;31127;52.078;4.370;2023-04-06T20:30:44;16.55;;;3.70;;
45388;SDS011;31127;52.078;4.370;2023-04-06T20:35:39;13.52;;;2.70;;
45388;SDS011;31127;52.078;4.370;2023-04-06T20:40:35;11.82;;;2.35;;
45388;SDS011;31127;52.078;4.370;2023-04-06T20:45:33;18.55;;;2.83;;
45388;SDS011;31127;52.078;4.370;2023-04-06T20:50:32;11.43;;;2.53;;
45388;SDS011;31127;52.078;4.370;2023-04-06T20:55:27;16.35;;;3.05;;
45388;SDS011;31127;52.078;4.370;2023-04-06T21:00:23;18.58;;;2.88;;
45388;SDS011;31127;52.078;4.370;2023-04-06T21:05:18;13.90;;;2.90;;
45388;SDS011;31127;52.078;4.370;2023-04-06T21:10:14;7.95;;;2.80;;
45388;SDS011;31127;52.078;4.370;2023-04-06T21:15:10;11.53;;;2.60;;
45388;SDS011;31127;52.078;4.370;2023-04-06T21:20:06;16.20;;;3.55;;
45388;SDS011;31127;52.078;4.370;2023-04-06T21:25:02;15.70;;;3.50;;
45388;SDS011;31127;52.078;4.370;2023-04-06T21:29:57;16.45;;;3.97;;
45388;SDS011;31127;52.078;4.370;2023-04-06T21:34:53;12.80;;;3.25;;
45388;SDS011;31127;52.078;4.370;2023-04-06T21:40:08;18.05;;;3.25;;
45388;SDS011;31127;52.078;4.370;2023-04-06T21:45:04;21.75;;;5.70;;
45388;SDS011;31127;52.078;4.370;2023-04-06T21:49:59;15.45;;;5.18;;
45388;SDS011;31127;52.078;4.370;2023-04-06T21:54:55;15.77;;;4.20;;
45388;SDS011;31127;52.078;4.370;2023-04-06T21:59:50;14.10;;;5.13;;
45388;SDS011;31127;52.078;4.370;2023-04-06T22:04:45;9.93;;;2.70;;
45388;SDS011;31127;52.078;4.370;2023-04-06T22:09:42;12.30;;;3.30;;
45388;SDS011;31127;52.078;4.370;2023-04-06T22:14:43;14.00;;;4.28;;
45388;SDS011;31127;52.078;4.370;2023-04-06T22:19:58;11.73;;;5.35;;
45388;SDS011;31127;52.078;4.370;2023-04-06T22:24:54;9.57;;;3.42;;
45388;SDS011;31127;52.078;4.370;2023-04-06T22:29:50;14.63;;;4.90;;
45388;SDS011;31127;52.078;4.370;2023-04-06T22:34:46;14.85;;;3.95;;
45388;SDS011;31127;52.078;4.370;2023-04-06T22:39:41;13.20;;;3.73;;
45388;SDS011;31127;52.078;4.370;2023-04-06T22:44:57;17.50;;;4.55;;
45388;SDS011;31127;52.078;4.370;2023-04-06T22:49:52;15.00;;;4.68;;
45388;SDS011;31127;52.078;4.370;2023-04-06T22:54:47;22.57;;;5.20;;
45388;SDS011;31127;52.078;4.370;2023-04-06T22:59:43;16.47;;;5.13;;
45388;SDS011;31127;52.078;4.370;2023-04-06T23:04:38;18.13;;;5.07;;
45388;SDS011;31127;52.078;4.370;2023-04-06T23:09:33;24.10;;;5.13;;
45388;SDS011;31127;52.078;4.370;2023-04-06T23:14:29;14.77;;;4.47;;
45388;SDS011;31127;52.078;4.370;2023-04-06T23:19:24;15.40;;;4.50;;
45388;SDS011;31127;52.078;4.370;2023-04-06T23:24:20;16.92;;;4.60;;
45388;SDS011;31127;52.078;4.370;2023-04-06T23:29:16;17.35;;;4.30;;
45388;SDS011;31127;52.078;4.370;2023-04-06T23:34:31;20.70;;;3.83;;
45388;SDS011;31127;52.078;4.370;2023-04-06T23:39:46;18.70;;;4.38;;
45388;SDS011;31127;52.078;4.370;2023-04-06T23:44:42;17.67;;;4.10;;
45388;SDS011;31127;52.078;4.370;2023-04-06T23:49:37;16.30;;;3.83;;
45388;SDS011;31127;52.078;4.370;2023-04-06T23:54:33;24.40;;;3.70;;
45388;SDS011;31127;52.078;4.370;2023-04-06T23:59:28;25.05;;;5.15;;
